sensor_id;sensor_type;location;lat;lon;timestamp;temperature;humidity
44671;DHT22;48397;53.016;-2.260;2022-12-18T00:01:33;0.60;99.90
44671;DHT22;48397;53.016;-2.260;2022-12-18T00:04:05;0.60;99.90
44671;DHT22;48397;53.016;-2.260;2022-12-18T00:06:35;0.60;99.90
44671;DHT22;48397;53.016;-2.260;2022-12-18T00:09:05;0.50;99.90
44671;DHT22;48397;53.016;-2.260;2022-12-18T00:11:35;0.50;99.90
44671;DHT22;48397;53.016;-2.260;2022-12-18T00:14:03;0.40;99.90
44671;DHT22;48397;53.016;-2.260;2022-12-18T00:16:31;0.30;99.90
44671;DHT22;48397;53.016;-2.260;2022-12-18T00:19:00;0.30;99.90
44671;DHT22;48397;53.016;-2.260;2022-12-18T00:21:30;0.50;99.90
44671;DHT22;48397;53.016;-2.260;2022-12-18T00:23:58;0.20;99.90
44671;DHT22;48397;53.016;-2.260;2022-12-18T00:26:29;0.10;99.90
44671;DHT22;48397;53.016;-2.260;2022-12-18T00:29:03;0.10;99.90
44671;DHT22;48397;53.016;-2.260;2022-12-18T00:31:32;0.00;99.90
44671;DHT22;48397;53.016;-2.260;2022-12-18T00:34:01;-0.10;99.90
44671;DHT22;48397;53.016;-2.260;2022-12-18T00:36:31;-0.30;99.90
44671;DHT22;48397;53.016;-2.260;2022-12-18T00:39:01;-0.20;99.90
44671;DHT22;48397;53.016;-2.260;2022-12-18T00:41:30;1.70;99.90
44671;DHT22;48397;53.016;-2.260;2022-12-18T00:44:18;-0.30;99.90
44671;DHT22;48397;53.016;-2.260;2022-12-18T00:46:47;-0.30;99.90
44671;DHT22;48397;53.016;-2.260;2022-12-18T00:49:17;-0.40;99.90
44671;DHT22;48397;53.016;-2.260;2022-12-18T00:51:46;-3.20;99.90
44671;DHT22;48397;53.016;-2.260;2022-12-18T00:54:14;-0.50;99.90
44671;DHT22;48397;53.016;-2.260;2022-12-18T00:56:42;0.60;99.90
44671;DHT22;48397;53.016;-2.260;2022-12-18T00:59:18;-0.60;99.90
44671;DHT22;48397;53.016;-2.260;2022-12-18T01:01:46;-0.60;99.90
44671;DHT22;48397;53.016;-2.260;2022-12-18T01:04:15;-0.70;99.90
44671;DHT22;48397;53.016;-2.260;2022-12-18T01:06:45;-0.70;99.90
44671;DHT22;48397;53.016;-2.260;2022-12-18T01:09:13;-0.90;99.90
44671;DHT22;48397;53.016;-2.260;2022-12-18T01:11:42;-0.90;99.90
44671;DHT22;48397;53.016;-2.260;2022-12-18T01:14:10;-0.90;99.90
44671;DHT22;48397;53.016;-2.260;2022-12-18T01:16:38;-0.90;99.90
44671;DHT22;48397;53.016;-2.260;2022-12-18T01:19:06;-0.90;99.90
44671;DHT22;48397;53.016;-2.260;2022-12-18T01:21:34;0.20;99.90
44671;DHT22;48397;53.016;-2.260;2022-12-18T01:24:04;1.40;99.90
44671;DHT22;48397;53.016;-2.260;2022-12-18T01:26:32;-1.00;99.90
44671;DHT22;48397;53.016;-2.260;2022-12-18T01:29:00;-1.00;99.90
44671;DHT22;48397;53.016;-2.260;2022-12-18T01:31:31;-1.10;99.90
44671;DHT22;48397;53.016;-2.260;2022-12-18T01:34:03;-1.00;99.90
44671;DHT22;48397;53.016;-2.260;2022-12-18T01:36:34;-1.10;99.90
44671;DHT22;48397;53.016;-2.260;2022-12-18T01:39:05;-1.20;99.90
44671;DHT22;48397;53.016;-2.260;2022-12-18T01:41:34;-1.20;99.90
44671;DHT22;48397;53.016;-2.260;2022-12-18T01:47:38;-1.20;99.90
44671;DHT22;48397;53.016;-2.260;2022-12-18T01:50:22;-1.30;99.90
44671;DHT22;48397;53.016;-2.260;2022-12-18T01:52:56;-1.30;99.90
44671;DHT22;48397;53.016;-2.260;2022-12-18T01:55:28;-1.30;99.90
44671;DHT22;48397;53.016;-2.260;2022-12-18T01:57:59;-1.20;99.90
44671;DHT22;48397;53.016;-2.260;2022-12-18T02:00:28;-1.30;99.90
44671;DHT22;48397;53.016;-2.260;2022-12-18T02:03:02;-1.20;99.90
44671;DHT22;48397;53.016;-2.260;2022-12-18T02:06:33;-1.20;99.90
44671;DHT22;48397;53.016;-2.260;2022-12-18T02:09:20;-1.20;99.90
44671;DHT22;48397;53.016;-2.260;2022-12-18T02:17:19;-1.20;99.90
44671;DHT22;48397;53.016;-2.260;2022-12-18T02:29:01;-1.20;99.90
44671;DHT22;48397;53.016;-2.260;2022-12-18T02:31:35;-1.20;99.90
44671;DHT22;48397;53.016;-2.260;2022-12-18T02:34:06;-1.20;99.90
44671;DHT22;48397;53.016;-2.260;2022-12-18T02:36:42;-1.20;99.90
44671;DHT22;48397;53.016;-2.260;2022-12-18T02:39:12;-1.20;99.90
44671;DHT22;48397;53.016;-2.260;2022-12-18T02:41:51;-1.30;99.90
44671;DHT22;48397;53.016;-2.260;2022-12-18T02:44:21;-1.20;99.90
44671;DHT22;48397;53.016;-2.260;2022-12-18T02:46:52;-1.20;99.90
44671;DHT22;48397;53.016;-2.260;2022-12-18T02:58:03;-1.30;99.90
44671;DHT22;48397;53.016;-2.260;2022-12-18T03:00:51;-1.20;99.90
44671;DHT22;48397;53.016;-2.260;2022-12-18T03:03:41;-1.20;99.90
44671;DHT22;48397;53.016;-2.260;2022-12-18T03:06:18;-1.20;99.90
44671;DHT22;48397;53.016;-2.260;2022-12-18T03:08:52;-1.20;99.90
44671;DHT22;48397;53.016;-2.260;2022-12-18T03:11:23;-1.20;99.90
44671;DHT22;48397;53.016;-2.260;2022-12-18T03:14:16;-1.10;99.90
44671;DHT22;48397;53.016;-2.260;2022-12-18T03:16:49;-1.20;99.90
44671;DHT22;48397;53.016;-2.260;2022-12-18T03:19:22;-1.10;99.90
44671;DHT22;48397;53.016;-2.260;2022-12-18T03:21:55;-1.10;99.90
44671;DHT22;48397;53.016;-2.260;2022-12-18T03:24:26;-1.10;99.90
44671;DHT22;48397;53.016;-2.260;2022-12-18T03:27:02;-1.00;99.90
44671;DHT22;48397;53.016;-2.260;2022-12-18T03:29:50;-1.00;99.90
44671;DHT22;48397;53.016;-2.260;2022-12-18T03:35:16;-1.00;99.90
44671;DHT22;48397;53.016;-2.260;2022-12-18T03:37:46;-1.00;99.90
44671;DHT22;48397;53.016;-2.260;2022-12-18T03:40:14;-0.90;99.90
44671;DHT22;48397;53.016;-2.260;2022-12-18T03:43:08;-0.90;99.90
44671;DHT22;48397;53.016;-2.260;2022-12-18T03:45:40;-0.80;99.90
44671;DHT22;48397;53.016;-2.260;2022-12-18T03:48:19;-0.80;99.90
44671;DHT22;48397;53.016;-2.260;2022-12-18T03:51:01;-0.80;99.90
44671;DHT22;48397;53.016;-2.260;2022-12-18T03:53:52;-0.70;99.90
44671;DHT22;48397;53.016;-2.260;2022-12-18T03:56:29;-0.70;99.90
44671;DHT22;48397;53.016;-2.260;2022-12-18T03:59:00;-0.80;99.90
44671;DHT22;48397;53.016;-2.260;2022-12-18T04:01:32;-0.70;99.90
44671;DHT22;48397;53.016;-2.260;2022-12-18T04:04:03;-0.70;99.90
44671;DHT22;48397;53.016;-2.260;2022-12-18T04:06:35;-0.70;99.90
44671;DHT22;48397;53.016;-2.260;2022-12-18T04:09:04;-0.70;99.90
44671;DHT22;48397;53.016;-2.260;2022-12-18T04:11:36;-0.70;99.90
44671;DHT22;48397;53.016;-2.260;2022-12-18T04:14:06;-0.70;99.90
44671;DHT22;48397;53.016;-2.260;2022-12-18T04:16:37;-0.70;99.90
44671;DHT22;48397;53.016;-2.260;2022-12-18T04:19:08;-0.70;99.90
44671;DHT22;48397;53.016;-2.260;2022-12-18T04:21:40;0.20;99.90
44671;DHT22;48397;53.016;-2.260;2022-12-18T04:24:10;-0.70;99.90
44671;DHT22;48397;53.016;-2.260;2022-12-18T04:26:43;-0.60;99.90
44671;DHT22;48397;53.016;-2.260;2022-12-18T04:29:17;-0.60;99.90
44671;DHT22;48397;53.016;-2.260;2022-12-18T04:31:45;-0.60;99.90
44671;DHT22;48397;53.016;-2.260;2022-12-18T04:34:13;-0.60;99.90
44671;DHT22;48397;53.016;-2.260;2022-12-18T04:39:17;-0.60;99.90
44671;DHT22;48397;53.016;-2.260;2022-12-18T04:41:45;-0.50;99.90
44671;DHT22;48397;53.016;-2.260;2022-12-18T04:44:14;-0.50;99.90
44671;DHT22;48397;53.016;-2.260;2022-12-18T04:46:42;-0.50;99.90
44671;DHT22;48397;53.016;-2.260;2022-12-18T04:49:10;-0.50;99.90
44671;DHT22;48397;53.016;-2.260;2022-12-18T04:51:40;0.90;99.90
44671;DHT22;48397;53.016;-2.260;2022-12-18T04:54:08;-0.50;99.90
44671;DHT22;48397;53.016;-2.260;2022-12-18T04:56:36;-0.50;99.90
44671;DHT22;48397;53.016;-2.260;2022-12-18T04:59:03;-0.40;99.90
44671;DHT22;48397;53.016;-2.260;2022-12-18T05:01:33;-0.40;99.90
44671;DHT22;48397;53.016;-2.260;2022-12-18T05:04:03;-0.40;99.90
44671;DHT22;48397;53.016;-2.260;2022-12-18T05:06:31;-0.40;99.90
44671;DHT22;48397;53.016;-2.260;2022-12-18T05:08:59;-0.30;99.90
44671;DHT22;48397;53.016;-2.260;2022-12-18T05:11:26;-0.30;99.90
44671;DHT22;48397;53.016;-2.260;2022-12-18T05:13:54;-0.40;99.90
44671;DHT22;48397;53.016;-2.260;2022-12-18T05:18:50;-0.30;99.90
44671;DHT22;48397;53.016;-2.260;2022-12-18T05:21:17;-0.40;99.90
44671;DHT22;48397;53.016;-2.260;2022-12-18T05:23:45;-0.50;99.90
44671;DHT22;48397;53.016;-2.260;2022-12-18T05:26:17;-0.50;99.90
44671;DHT22;48397;53.016;-2.260;2022-12-18T05:28:46;-0.50;99.90
44671;DHT22;48397;53.016;-2.260;2022-12-18T05:31:14;-0.60;99.90
44671;DHT22;48397;53.016;-2.260;2022-12-18T05:33:42;-0.60;99.90
44671;DHT22;48397;53.016;-2.260;2022-12-18T05:36:10;-0.60;99.90
44671;DHT22;48397;53.016;-2.260;2022-12-18T05:38:39;-0.50;99.90
44671;DHT22;48397;53.016;-2.260;2022-12-18T05:41:07;-0.50;99.90
44671;DHT22;48397;53.016;-2.260;2022-12-18T05:43:37;-0.40;99.90
44671;DHT22;48397;53.016;-2.260;2022-12-18T05:46:08;-0.40;99.90
44671;DHT22;48397;53.016;-2.260;2022-12-18T05:48:36;-0.30;99.90
44671;DHT22;48397;53.016;-2.260;2022-12-18T05:51:06;-0.30;99.90
44671;DHT22;48397;53.016;-2.260;2022-12-18T05:53:35;-0.20;99.90
44671;DHT22;48397;53.016;-2.260;2022-12-18T05:56:07;-0.20;99.90
44671;DHT22;48397;53.016;-2.260;2022-12-18T05:58:35;-0.20;99.90
44671;DHT22;48397;53.016;-2.260;2022-12-18T06:01:14;-0.10;99.90
44671;DHT22;48397;53.016;-2.260;2022-12-18T06:03:43;-0.10;99.90
44671;DHT22;48397;53.016;-2.260;2022-12-18T06:06:14;-0.10;99.90
44671;DHT22;48397;53.016;-2.260;2022-12-18T06:08:42;0.00;99.90
44671;DHT22;48397;53.016;-2.260;2022-12-18T06:11:15;0.00;99.90
44671;DHT22;48397;53.016;-2.260;2022-12-18T06:13:45;-1.00;99.90
44671;DHT22;48397;53.016;-2.260;2022-12-18T06:16:13;0.10;99.90
44671;DHT22;48397;53.016;-2.260;2022-12-18T06:18:42;0.10;99.90
44671;DHT22;48397;53.016;-2.260;2022-12-18T06:21:09;0.40;99.90
44671;DHT22;48397;53.016;-2.260;2022-12-18T06:23:38;0.10;99.90
44671;DHT22;48397;53.016;-2.260;2022-12-18T06:26:08;0.20;99.90
44671;DHT22;48397;53.016;-2.260;2022-12-18T06:28:36;0.70;99.90
44671;DHT22;48397;53.016;-2.260;2022-12-18T06:31:05;0.20;99.90
44671;DHT22;48397;53.016;-2.260;2022-12-18T06:33:34;0.20;99.90
44671;DHT22;48397;53.016;-2.260;2022-12-18T06:36:12;0.20;99.90
44671;DHT22;48397;53.016;-2.260;2022-12-18T06:38:43;0.30;99.90
44671;DHT22;48397;53.016;-2.260;2022-12-18T06:41:19;0.30;99.90
44671;DHT22;48397;53.016;-2.260;2022-12-18T06:43:47;0.30;99.90
44671;DHT22;48397;53.016;-2.260;2022-12-18T06:46:15;2.50;99.90
44671;DHT22;48397;53.016;-2.260;2022-12-18T06:48:45;0.30;99.90
44671;DHT22;48397;53.016;-2.260;2022-12-18T06:51:19;0.30;99.90
44671;DHT22;48397;53.016;-2.260;2022-12-18T06:53:47;0.30;99.90
44671;DHT22;48397;53.016;-2.260;2022-12-18T06:56:14;0.30;99.90
44671;DHT22;48397;53.016;-2.260;2022-12-18T06:58:42;0.30;99.90
44671;DHT22;48397;53.016;-2.260;2022-12-18T07:01:12;0.30;99.90
44671;DHT22;48397;53.016;-2.260;2022-12-18T07:03:40;0.30;99.90
44671;DHT22;48397;53.016;-2.260;2022-12-18T07:06:15;2.60;99.90
44671;DHT22;48397;53.016;-2.260;2022-12-18T07:08:44;0.30;99.90
44671;DHT22;48397;53.016;-2.260;2022-12-18T07:11:12;0.30;99.90
44671;DHT22;48397;53.016;-2.260;2022-12-18T07:13:40;0.30;99.90
44671;DHT22;48397;53.016;-2.260;2022-12-18T07:16:09;0.30;99.90
44671;DHT22;48397;53.016;-2.260;2022-12-18T07:18:47;0.30;99.90
44671;DHT22;48397;53.016;-2.260;2022-12-18T07:21:16;0.30;99.90
44671;DHT22;48397;53.016;-2.260;2022-12-18T07:23:45;0.30;99.90
44671;DHT22;48397;53.016;-2.260;2022-12-18T07:26:18;0.30;99.90
44671;DHT22;48397;53.016;-2.260;2022-12-18T07:28:46;3.50;99.90
44671;DHT22;48397;53.016;-2.260;2022-12-18T07:31:16;0.30;99.90
44671;DHT22;48397;53.016;-2.260;2022-12-18T07:33:45;0.30;99.90
44671;DHT22;48397;53.016;-2.260;2022-12-18T07:36:14;0.30;99.90
44671;DHT22;48397;53.016;-2.260;2022-12-18T07:41:47;0.30;99.90
44671;DHT22;48397;53.016;-2.260;2022-12-18T07:44:35;0.40;99.90
44671;DHT22;48397;53.016;-2.260;2022-12-18T07:47:03;0.40;99.90
44671;DHT22;48397;53.016;-2.260;2022-12-18T07:49:38;0.40;99.90
44671;DHT22;48397;53.016;-2.260;2022-12-18T07:52:05;0.30;99.90
44671;DHT22;48397;53.016;-2.260;2022-12-18T07:54:33;0.30;99.90
44671;DHT22;48397;53.016;-2.260;2022-12-18T07:57:01;-1.30;99.90
44671;DHT22;48397;53.016;-2.260;2022-12-18T07:59:28;2.50;99.90
44671;DHT22;48397;53.016;-2.260;2022-12-18T08:01:56;0.40;99.90
44671;DHT22;48397;53.016;-2.260;2022-12-18T08:04:24;0.40;99.90
44671;DHT22;48397;53.016;-2.260;2022-12-18T08:06:52;0.20;99.90
44671;DHT22;48397;53.016;-2.260;2022-12-18T08:11:48;0.40;99.90
44671;DHT22;48397;53.016;-2.260;2022-12-18T08:14:16;0.40;99.90
44671;DHT22;48397;53.016;-2.260;2022-12-18T08:16:44;3.30;99.90
44671;DHT22;48397;53.016;-2.260;2022-12-18T08:19:11;0.90;99.90
44671;DHT22;48397;53.016;-2.260;2022-12-18T08:21:39;0.50;99.90
44671;DHT22;48397;53.016;-2.260;2022-12-18T08:24:09;0.40;99.90
44671;DHT22;48397;53.016;-2.260;2022-12-18T08:26:38;0.50;99.90
44671;DHT22;48397;53.016;-2.260;2022-12-18T08:29:05;2.40;99.90
44671;DHT22;48397;53.016;-2.260;2022-12-18T08:31:33;0.50;99.90
44671;DHT22;48397;53.016;-2.260;2022-12-18T08:34:01;0.60;99.90
44671;DHT22;48397;53.016;-2.260;2022-12-18T08:36:29;0.60;99.90
44671;DHT22;48397;53.016;-2.260;2022-12-18T08:38:57;0.50;99.90
44671;DHT22;48397;53.016;-2.260;2022-12-18T08:41:25;0.60;99.90
44671;DHT22;48397;53.016;-2.260;2022-12-18T08:43:52;0.50;99.90
44671;DHT22;48397;53.016;-2.260;2022-12-18T08:46:41;0.50;99.90
44671;DHT22;48397;53.016;-2.260;2022-12-18T08:49:11;0.50;99.90
44671;DHT22;48397;53.016;-2.260;2022-12-18T08:51:39;0.60;99.90
44671;DHT22;48397;53.016;-2.260;2022-12-18T08:54:07;0.60;99.90
44671;DHT22;48397;53.016;-2.260;2022-12-18T08:56:35;0.60;99.90
44671;DHT22;48397;53.016;-2.260;2022-12-18T09:01:31;0.60;99.90
44671;DHT22;48397;53.016;-2.260;2022-12-18T09:04:00;1.40;99.90
44671;DHT22;48397;53.016;-2.260;2022-12-18T09:06:28;0.60;99.90
44671;DHT22;48397;53.016;-2.260;2022-12-18T09:08:57;0.60;99.90
44671;DHT22;48397;53.016;-2.260;2022-12-18T09:11:27;0.70;99.90
44671;DHT22;48397;53.016;-2.260;2022-12-18T09:13:55;0.50;99.90
44671;DHT22;48397;53.016;-2.260;2022-12-18T09:16:25;2.90;99.90
44671;DHT22;48397;53.016;-2.260;2022-12-18T09:18:59;0.70;99.90
44671;DHT22;48397;53.016;-2.260;2022-12-18T09:21:32;0.70;99.90
44671;DHT22;48397;53.016;-2.260;2022-12-18T09:24:04;0.70;99.90
44671;DHT22;48397;53.016;-2.260;2022-12-18T09:26:35;0.70;99.90
44671;DHT22;48397;53.016;-2.260;2022-12-18T09:29:03;0.80;99.90
44671;DHT22;48397;53.016;-2.260;2022-12-18T09:31:32;0.80;99.90
44671;DHT22;48397;53.016;-2.260;2022-12-18T09:33:59;0.70;99.90
44671;DHT22;48397;53.016;-2.260;2022-12-18T09:36:27;0.80;99.90
44671;DHT22;48397;53.016;-2.260;2022-12-18T09:38:55;0.80;99.90
44671;DHT22;48397;53.016;-2.260;2022-12-18T09:44:14;0.90;99.90
44671;DHT22;48397;53.016;-2.260;2022-12-18T09:46:47;1.00;99.90
44671;DHT22;48397;53.016;-2.260;2022-12-18T09:49:18;0.90;99.90
44671;DHT22;48397;53.016;-2.260;2022-12-18T09:51:52;1.00;99.90
44671;DHT22;48397;53.016;-2.260;2022-12-18T09:54:42;3.70;99.90
44671;DHT22;48397;53.016;-2.260;2022-12-18T09:57:14;1.10;99.90
44671;DHT22;48397;53.016;-2.260;2022-12-18T09:59:48;1.10;99.90
44671;DHT22;48397;53.016;-2.260;2022-12-18T10:02:26;3.20;99.90
44671;DHT22;48397;53.016;-2.260;2022-12-18T10:05:02;1.20;99.90
44671;DHT22;48397;53.016;-2.260;2022-12-18T10:20:54;1.20;99.90
44671;DHT22;48397;53.016;-2.260;2022-12-18T10:23:37;1.30;99.90
44671;DHT22;48397;53.016;-2.260;2022-12-18T10:26:14;1.20;99.90
44671;DHT22;48397;53.016;-2.260;2022-12-18T10:28:43;1.30;99.90
44671;DHT22;48397;53.016;-2.260;2022-12-18T10:31:17;1.30;99.90
44671;DHT22;48397;53.016;-2.260;2022-12-18T10:33:46;1.40;99.90
44671;DHT22;48397;53.016;-2.260;2022-12-18T10:36:13;1.40;99.90
44671;DHT22;48397;53.016;-2.260;2022-12-18T10:38:41;1.40;99.90
44671;DHT22;48397;53.016;-2.260;2022-12-18T10:44:15;1.50;99.90
44671;DHT22;48397;53.016;-2.260;2022-12-18T10:46:54;1.50;99.90
44671;DHT22;48397;53.016;-2.260;2022-12-18T10:49:28;1.50;99.90
44671;DHT22;48397;53.016;-2.260;2022-12-18T10:52:20;1.50;99.90
44671;DHT22;48397;53.016;-2.260;2022-12-18T10:54:58;1.60;99.90
44671;DHT22;48397;53.016;-2.260;2022-12-18T10:59:55;2.90;99.90
44671;DHT22;48397;53.016;-2.260;2022-12-18T11:02:38;1.60;99.90
44671;DHT22;48397;53.016;-2.260;2022-12-18T11:05:36;1.70;99.90
44671;DHT22;48397;53.016;-2.260;2022-12-18T11:08:04;1.80;99.90
44671;DHT22;48397;53.016;-2.260;2022-12-18T11:10:46;1.70;99.90
44671;DHT22;48397;53.016;-2.260;2022-12-18T11:13:19;1.80;99.90
44671;DHT22;48397;53.016;-2.260;2022-12-18T11:15:48;2.10;99.90
44671;DHT22;48397;53.016;-2.260;2022-12-18T11:18:28;1.90;99.90
44671;DHT22;48397;53.016;-2.260;2022-12-18T11:23:34;2.00;99.90
44671;DHT22;48397;53.016;-2.260;2022-12-18T11:26:04;3.40;99.90
44671;DHT22;48397;53.016;-2.260;2022-12-18T11:28:52;2.10;99.90
44671;DHT22;48397;53.016;-2.260;2022-12-18T11:31:26;2.10;99.90
44671;DHT22;48397;53.016;-2.260;2022-12-18T11:36:47;2.20;99.90
44671;DHT22;48397;53.016;-2.260;2022-12-18T11:42:12;2.20;99.90
44671;DHT22;48397;53.016;-2.260;2022-12-18T11:45:34;2.20;99.90
44671;DHT22;48397;53.016;-2.260;2022-12-18T11:48:12;2.20;99.90
44671;DHT22;48397;53.016;-2.260;2022-12-18T11:50:53;2.20;99.90
44671;DHT22;48397;53.016;-2.260;2022-12-18T11:53:27;2.20;99.90
44671;DHT22;48397;53.016;-2.260;2022-12-18T11:56:12;2.10;99.90
44671;DHT22;48397;53.016;-2.260;2022-12-18T11:59:08;2.10;99.90
44671;DHT22;48397;53.016;-2.260;2022-12-18T12:01:43;2.10;99.90
44671;DHT22;48397;53.016;-2.260;2022-12-18T12:10:06;0.60;99.90
44671;DHT22;48397;53.016;-2.260;2022-12-18T12:15:28;2.10;99.90
44671;DHT22;48397;53.016;-2.260;2022-12-18T12:18:22;2.10;99.90
44671;DHT22;48397;53.016;-2.260;2022-12-18T12:21:10;1.60;99.90
44671;DHT22;48397;53.016;-2.260;2022-12-18T12:23:54;2.10;99.90
44671;DHT22;48397;53.016;-2.260;2022-12-18T12:29:39;2.10;99.90
44671;DHT22;48397;53.016;-2.260;2022-12-18T12:32:37;2.10;99.90
44671;DHT22;48397;53.016;-2.260;2022-12-18T12:41:09;2.10;99.90
44671;DHT22;48397;53.016;-2.260;2022-12-18T12:44:03;2.10;99.90
44671;DHT22;48397;53.016;-2.260;2022-12-18T12:47:00;2.10;99.90
44671;DHT22;48397;53.016;-2.260;2022-12-18T12:49:46;2.00;99.90
44671;DHT22;48397;53.016;-2.260;2022-12-18T12:54:55;2.00;99.90
44671;DHT22;48397;53.016;-2.260;2022-12-18T12:57:33;2.10;99.90
44671;DHT22;48397;53.016;-2.260;2022-12-18T13:00:17;2.80;99.90
44671;DHT22;48397;53.016;-2.260;2022-12-18T13:03:08;2.00;99.90
44671;DHT22;48397;53.016;-2.260;2022-12-18T13:05:54;2.10;99.90
44671;DHT22;48397;53.016;-2.260;2022-12-18T13:08:30;2.10;99.90
44671;DHT22;48397;53.016;-2.260;2022-12-18T13:11:02;2.10;99.90
44671;DHT22;48397;53.016;-2.260;2022-12-18T13:13:54;2.10;99.90
44671;DHT22;48397;53.016;-2.260;2022-12-18T13:16:24;2.10;99.90
44671;DHT22;48397;53.016;-2.260;2022-12-18T13:18:56;2.10;99.90
44671;DHT22;48397;53.016;-2.260;2022-12-18T13:21:41;2.10;99.90
44671;DHT22;48397;53.016;-2.260;2022-12-18T13:24:27;2.10;99.90
44671;DHT22;48397;53.016;-2.260;2022-12-18T13:29:45;2.00;99.90
44671;DHT22;48397;53.016;-2.260;2022-12-18T13:32:25;2.00;99.90
44671;DHT22;48397;53.016;-2.260;2022-12-18T13:37:54;2.00;99.90
44671;DHT22;48397;53.016;-2.260;2022-12-18T13:40:53;2.00;99.90
44671;DHT22;48397;53.016;-2.260;2022-12-18T13:43:29;2.00;99.90
44671;DHT22;48397;53.016;-2.260;2022-12-18T13:46:41;2.00;99.90
44671;DHT22;48397;53.016;-2.260;2022-12-18T13:49:03;2.00;99.90
44671;DHT22;48397;53.016;-2.260;2022-12-18T13:51:33;2.00;99.90
44671;DHT22;48397;53.016;-2.260;2022-12-18T13:57:00;2.00;99.90
44671;DHT22;48397;53.016;-2.260;2022-12-18T13:59:40;0.70;99.90
44671;DHT22;48397;53.016;-2.260;2022-12-18T14:02:21;2.00;99.90
44671;DHT22;48397;53.016;-2.260;2022-12-18T14:04:50;2.00;99.90
44671;DHT22;48397;53.016;-2.260;2022-12-18T14:09:54;2.00;99.90
44671;DHT22;48397;53.016;-2.260;2022-12-18T14:12:48;2.00;99.90
44671;DHT22;48397;53.016;-2.260;2022-12-18T14:15:40;2.00;99.90
44671;DHT22;48397;53.016;-2.260;2022-12-18T14:18:21;2.00;99.90
44671;DHT22;48397;53.016;-2.260;2022-12-18T14:20:52;2.00;99.90
44671;DHT22;48397;53.016;-2.260;2022-12-18T14:23:40;2.00;99.90
44671;DHT22;48397;53.016;-2.260;2022-12-18T14:28:52;4.50;99.90
44671;DHT22;48397;53.016;-2.260;2022-12-18T14:31:31;2.00;99.90
44671;DHT22;48397;53.016;-2.260;2022-12-18T14:33:59;2.00;99.90
44671;DHT22;48397;53.016;-2.260;2022-12-18T14:36:28;2.10;99.90
44671;DHT22;48397;53.016;-2.260;2022-12-18T14:38:57;2.10;99.90
44671;DHT22;48397;53.016;-2.260;2022-12-18T14:41:26;2.10;99.90
44671;DHT22;48397;53.016;-2.260;2022-12-18T14:43:54;2.10;99.90
44671;DHT22;48397;53.016;-2.260;2022-12-18T14:46:34;2.10;99.90
44671;DHT22;48397;53.016;-2.260;2022-12-18T14:51:54;2.20;99.90
44671;DHT22;48397;53.016;-2.260;2022-12-18T14:54:24;2.20;99.90
44671;DHT22;48397;53.016;-2.260;2022-12-18T14:57:04;2.20;99.90
44671;DHT22;48397;53.016;-2.260;2022-12-18T14:59:32;2.20;99.90
44671;DHT22;48397;53.016;-2.260;2022-12-18T15:02:23;2.30;99.90
44671;DHT22;48397;53.016;-2.260;2022-12-18T15:05:28;2.30;99.90
44671;DHT22;48397;53.016;-2.260;2022-12-18T15:07:59;2.30;99.90
44671;DHT22;48397;53.016;-2.260;2022-12-18T15:10:29;2.30;99.90
44671;DHT22;48397;53.016;-2.260;2022-12-18T15:20:53;2.30;99.90
44671;DHT22;48397;53.016;-2.260;2022-12-18T15:23:25;2.30;99.90
44671;DHT22;48397;53.016;-2.260;2022-12-18T15:26:05;4.40;99.90
44671;DHT22;48397;53.016;-2.260;2022-12-18T15:28:51;2.40;99.90
44671;DHT22;48397;53.016;-2.260;2022-12-18T15:31:31;2.40;99.90
44671;DHT22;48397;53.016;-2.260;2022-12-18T15:36:35;2.50;99.90
44671;DHT22;48397;53.016;-2.260;2022-12-18T15:39:04;2.50;99.90
44671;DHT22;48397;53.016;-2.260;2022-12-18T15:41:35;2.60;99.90
44671;DHT22;48397;53.016;-2.260;2022-12-18T15:44:23;2.60;99.90
44671;DHT22;48397;53.016;-2.260;2022-12-18T15:46:52;2.70;99.90
44671;DHT22;48397;53.016;-2.260;2022-12-18T15:49:20;2.70;99.90
44671;DHT22;48397;53.016;-2.260;2022-12-18T15:51:57;2.80;99.90
44671;DHT22;48397;53.016;-2.260;2022-12-18T15:54:26;2.80;99.90
44671;DHT22;48397;53.016;-2.260;2022-12-18T15:57:29;2.90;99.90
44671;DHT22;48397;53.016;-2.260;2022-12-18T15:59:57;-0.20;99.90
44671;DHT22;48397;53.016;-2.260;2022-12-18T16:02:26;2.90;99.90
44671;DHT22;48397;53.016;-2.260;2022-12-18T16:04:57;4.30;99.90
44671;DHT22;48397;53.016;-2.260;2022-12-18T16:07:25;3.00;99.90
44671;DHT22;48397;53.016;-2.260;2022-12-18T16:09:55;3.10;99.90
44671;DHT22;48397;53.016;-2.260;2022-12-18T16:12:25;3.10;99.90
44671;DHT22;48397;53.016;-2.260;2022-12-18T16:14:53;3.10;99.90
44671;DHT22;48397;53.016;-2.260;2022-12-18T16:17:21;3.20;99.90
44671;DHT22;48397;53.016;-2.260;2022-12-18T16:19:49;3.10;99.90
44671;DHT22;48397;53.016;-2.260;2022-12-18T16:22:27;3.20;99.90
44671;DHT22;48397;53.016;-2.260;2022-12-18T16:24:56;3.20;99.90
44671;DHT22;48397;53.016;-2.260;2022-12-18T16:27:24;4.30;99.90
44671;DHT22;48397;53.016;-2.260;2022-12-18T16:29:52;3.30;99.90
44671;DHT22;48397;53.016;-2.260;2022-12-18T16:32:21;3.30;99.90
44671;DHT22;48397;53.016;-2.260;2022-12-18T16:34:50;3.40;99.90
44671;DHT22;48397;53.016;-2.260;2022-12-18T16:37:17;3.30;99.90
44671;DHT22;48397;53.016;-2.260;2022-12-18T16:39:45;3.40;99.90
44671;DHT22;48397;53.016;-2.260;2022-12-18T16:42:17;3.40;99.90
44671;DHT22;48397;53.016;-2.260;2022-12-18T16:44:48;3.40;99.90
44671;DHT22;48397;53.016;-2.260;2022-12-18T16:47:16;3.50;99.90
44671;DHT22;48397;53.016;-2.260;2022-12-18T16:49:45;3.50;99.90
44671;DHT22;48397;53.016;-2.260;2022-12-18T16:52:12;3.50;99.90
44671;DHT22;48397;53.016;-2.260;2022-12-18T16:54:40;3.60;99.90
44671;DHT22;48397;53.016;-2.260;2022-12-18T16:57:13;3.60;99.90
44671;DHT22;48397;53.016;-2.260;2022-12-18T16:59:40;3.60;99.90
44671;DHT22;48397;53.016;-2.260;2022-12-18T17:02:17;3.60;99.90
44671;DHT22;48397;53.016;-2.260;2022-12-18T17:04:53;3.70;99.90
44671;DHT22;48397;53.016;-2.260;2022-12-18T17:07:21;3.60;99.90
44671;DHT22;48397;53.016;-2.260;2022-12-18T17:09:49;3.70;99.90
44671;DHT22;48397;53.016;-2.260;2022-12-18T17:12:17;3.70;99.90
44671;DHT22;48397;53.016;-2.260;2022-12-18T17:14:45;3.70;99.90
44671;DHT22;48397;53.016;-2.260;2022-12-18T17:17:13;3.80;99.90
44671;DHT22;48397;53.016;-2.260;2022-12-18T17:19:51;3.70;99.90
44671;DHT22;48397;53.016;-2.260;2022-12-18T17:22:20;3.70;99.90
44671;DHT22;48397;53.016;-2.260;2022-12-18T17:24:47;4.60;99.90
44671;DHT22;48397;53.016;-2.260;2022-12-18T17:27:15;3.80;99.90
44671;DHT22;48397;53.016;-2.260;2022-12-18T17:29:44;3.80;99.90
44671;DHT22;48397;53.016;-2.260;2022-12-18T17:32:16;3.90;99.90
44671;DHT22;48397;53.016;-2.260;2022-12-18T17:34:44;3.90;99.90
44671;DHT22;48397;53.016;-2.260;2022-12-18T17:37:12;3.90;99.90
44671;DHT22;48397;53.016;-2.260;2022-12-18T17:39:40;3.90;99.90
44671;DHT22;48397;53.016;-2.260;2022-12-18T17:42:08;4.00;99.90
44671;DHT22;48397;53.016;-2.260;2022-12-18T17:44:42;4.00;99.90
44671;DHT22;48397;53.016;-2.260;2022-12-18T17:47:12;4.00;99.90
44671;DHT22;48397;53.016;-2.260;2022-12-18T17:49:40;4.00;99.90
44671;DHT22;48397;53.016;-2.260;2022-12-18T17:52:07;4.10;99.90
44671;DHT22;48397;53.016;-2.260;2022-12-18T17:54:36;4.10;99.90
44671;DHT22;48397;53.016;-2.260;2022-12-18T17:57:06;4.10;99.90
44671;DHT22;48397;53.016;-2.260;2022-12-18T17:59:34;4.10;99.90
44671;DHT22;48397;53.016;-2.260;2022-12-18T18:02:02;4.20;99.90
44671;DHT22;48397;53.016;-2.260;2022-12-18T18:06:59;4.20;99.90